Time;durP1;ratioP1;P1;durP2;ratioP2;P2;SDS_P1;SDS_P2;PMS_P1;PMS_P2;Temp;Humidity;BMP_temperature;BMP_pressure;BME280_temperature;BME280_humidity;BME280_pressure;Samples;Min_cycle;Max_cycle;Signal;HPM_P1;HPM_P2
2021/06/21 00:01:30;;;;;;;10.27;4.50;;;21.10;84.10;;;;;;5042806;28;20181;-92
2021/06/21 00:03:56;;;;;;;8.75;3.58;;;20.90;84.30;;;;;;5005249;28;20270;-91
2021/06/21 00:06:21;;;;;;;13.52;4.43;;;20.80;85.40;;;;;;5021917;28;20187;-92
2021/06/21 00:08:47;;;;;;;6.38;3.80;;;20.80;84.70;;;;;;5021642;28;20182;-91
2021/06/21 00:11:13;;;;;;;9.40;3.92;;;20.70;85.40;;;;;;5039602;28;20180;-92
2021/06/21 00:13:38;;;;;;;7.88;4.05;;;20.80;85.20;;;;;;5021738;28;20201;-92
2021/06/21 00:16:05;;;;;;;9.57;4.70;;;20.90;84.50;;;;;;5005605;28;20185;-92
2021/06/21 00:18:31;;;;;;;8.73;3.80;;;20.80;84.90;;;;;;5038072;28;20196;-92
2021/06/21 00:20:56;;;;;;;6.97;4.20;;;20.80;85.20;;;;;;5027356;28;20665;-92
2021/06/21 00:23:23;;;;;;;8.25;3.92;;;20.70;85.00;;;;;;5029525;28;20253;-91
2021/06/21 00:25:49;;;;;;;5.57;3.60;;;20.60;85.80;;;;;;5045479;28;20178;-91
2021/06/21 00:28:16;;;;;;;13.90;4.32;;;20.50;86.40;;;;;;5046403;28;20186;-91
2021/06/21 00:30:42;;;;;;;10.00;4.25;;;20.40;86.70;;;;;;5034383;28;20190;-92
2021/06/21 00:33:08;;;;;;;7.85;3.75;;;20.30;86.50;;;;;;5052282;28;20216;-91
2021/06/21 00:35:35;;;;;;;14.85;4.32;;;20.30;86.80;;;;;;5032205;28;20184;-92
2021/06/21 00:38:01;;;;;;;10.93;4.63;;;20.00;88.10;;;;;;5028389;28;20498;-92
2021/06/21 00:40:27;;;;;;;8.68;3.70;;;19.90;88.60;;;;;;5030215;28;20255;-92
2021/06/21 00:42:53;;;;;;;12.70;4.40;;;19.70;89.30;;;;;;5030032;28;20251;-92
2021/06/21 00:45:20;;;;;;;11.02;3.55;;;19.70;90.10;;;;;;5046697;28;20184;-91
2021/06/21 00:47:48;;;;;;;9.05;4.35;;;19.50;90.30;;;;;;5064253;28;20239;-91
2021/06/21 00:50:14;;;;;;;12.00;4.50;;;19.40;91.20;;;;;;5045944;28;20191;-92
2021/06/21 00:52:41;;;;;;;9.55;3.70;;;19.10;92.90;;;;;;5029813;28;20191;-91
2021/06/21 00:55:08;;;;;;;9.02;3.90;;;19.20;92.90;;;;;;5079024;28;20183;-92
2021/06/21 00:57:36;;;;;;;8.93;4.00;;;19.10;92.80;;;;;;5084464;28;20225;-92
2021/06/21 01:00:08;;;;;;;9.43;4.07;;;19.20;92.30;;;;;;5066361;28;20642;-91
2021/06/21 01:02:34;;;;;;;11.18;4.38;;;19.20;92.10;;;;;;5084739;28;20235;-91
2021/06/21 01:05:00;;;;;;;6.97;3.50;;;19.10;92.20;;;;;;5066428;28;20245;-92
2021/06/21 01:07:27;;;;;;;9.82;4.00;;;19.20;92.10;;;;;;5049954;28;20193;-92
2021/06/21 01:09:54;;;;;;;8.70;3.70;;;19.20;92.30;;;;;;5049875;28;20195;-91
2021/06/21 01:12:39;;;;;;;9.88;3.50;;;19.30;92.00;;;;;;5066829;28;20209;-91
2021/06/21 01:15:08;;;;;;;7.40;3.55;;;19.30;91.90;;;;;;5066467;28;20184;-91
2021/06/21 01:17:46;;;;;;;8.57;3.50;;;19.40;91.00;;;;;;5057612;28;20234;-91
2021/06/21 01:20:32;;;;;;;6.82;3.70;;;19.50;90.10;;;;;;5099922;28;20191;-91
2021/06/21 01:23:50;;;;;;;6.65;3.65;;;19.60;89.60;;;;;;5066251;28;20206;-91
2021/06/21 01:26:32;;;;;;;10.90;3.88;;;19.50;89.10;;;;;;5078461;28;20164;-91
2021/06/21 01:29:17;;;;;;;8.40;3.90;;;19.60;89.40;;;;;;5044995;28;20259;-89
2021/06/21 01:32:04;;;;;;;7.55;3.63;;;19.50;89.10;;;;;;5052264;28;20166;-92
2021/06/21 01:34:30;;;;;;;10.07;3.15;;;19.40;89.70;;;;;;5043333;28;20211;-92
2021/06/21 01:37:01;;;;;;;8.43;3.80;;;19.40;89.40;;;;;;5009748;28;20216;-92
2021/06/21 01:39:32;;;;;;;12.43;4.15;;;19.20;89.80;;;;;;5026326;28;20183;-92
2021/06/21 01:42:09;;;;;;;6.20;3.03;;;19.20;90.10;;;;;;5055211;28;20161;-92
2021/06/21 01:44:41;;;;;;;9.23;3.67;;;19.30;90.20;;;;;;5063518;28;20194;-91
2021/06/21 01:47:10;;;;;;;10.27;3.63;;;19.20;89.20;;;;;;5063782;28;20195;-91
2021/06/21 01:49:43;;;;;;;9.85;3.63;;;19.10;89.60;;;;;;5046122;28;20325;-92
2021/06/21 01:52:11;;;;;;;9.32;4.00;;;19.10;89.90;;;;;;5046556;28;20194;-91
2021/06/21 01:54:40;;;;;;;9.10;3.63;;;19.10;89.80;;;;;;5045779;28;20647;-92
2021/06/21 01:57:07;;;;;;;9.70;3.75;;;19.10;90.10;;;;;;5046629;28;20217;-92
2021/06/21 01:59:33;;;;;;;9.30;3.72;;;19.00;90.70;;;;;;5026642;28;20258;-92
2021/06/21 02:02:01;;;;;;;10.50;3.92;;;18.90;91.10;;;;;;5026371;28;20189;-92
2021/06/21 02:04:31;;;;;;;7.80;3.67;;;18.90;90.70;;;;;;5026007;28;20214;-92
2021/06/21 02:07:00;;;;;;;9.43;3.58;;;18.90;90.70;;;;;;5025261;28;20718;-92
2021/06/21 02:09:27;;;;;;;12.27;4.30;;;18.90;91.10;;;;;;5025683;28;20215;-92
2021/06/21 02:11:57;;;;;;;7.20;3.40;;;19.00;90.40;;;;;;5025286;28;20258;-92
2021/06/21 02:14:27;;;;;;;7.13;3.10;;;19.00;90.80;;;;;;5029591;28;20353;-91
2021/06/21 02:16:55;;;;;;;9.10;3.88;;;19.10;90.20;;;;;;5063931;28;20223;-92
2021/06/21 02:19:24;;;;;;;9.00;3.63;;;19.10;89.90;;;;;;5045722;28;20278;-91
2021/06/21 02:21:50;;;;;;;8.90;3.42;;;19.10;90.20;;;;;;5046085;28;20192;-91
2021/06/21 02:24:18;;;;;;;7.72;3.45;;;19.30;89.80;;;;;;5045126;28;20207;-92
2021/06/21 02:26:46;;;;;;;8.43;3.58;;;19.10;89.30;;;;;;5045283;28;20212;-92
2021/06/21 02:29:14;;;;;;;8.98;3.60;;;19.10;89.00;;;;;;5062386;28;20191;-91
2021/06/21 02:31:40;;;;;;;9.38;3.50;;;19.20;89.50;;;;;;5062186;28;20230;-92
2021/06/21 02:34:05;;;;;;;9.82;4.13;;;19.10;89.60;;;;;;5044594;28;20204;-91
2021/06/21 02:36:31;;;;;;;7.95;3.50;;;19.10;89.80;;;;;;5045233;28;20677;-91
2021/06/21 02:38:59;;;;;;;8.60;3.95;;;18.90;90.60;;;;;;5028584;28;20708;-92
2021/06/21 02:41:24;;;;;;;10.35;4.30;;;18.90;90.80;;;;;;5045330;28;20243;-91
2021/06/21 02:43:50;;;;;;;10.18;3.55;;;18.90;90.60;;;;;;5044016;28;20231;-92
2021/06/21 02:46:16;;;;;;;11.57;4.15;;;18.90;90.40;;;;;;5045153;28;20661;-91
2021/06/21 02:48:42;;;;;;;15.35;4.28;;;18.90;90.30;;;;;;5062427;28;20302;-91
2021/06/21 02:51:15;;;;;;;10.27;3.72;;;18.90;90.30;;;;;;5044806;28;20179;-91
2021/06/21 02:53:46;;;;;;;10.77;4.00;;;18.90;90.50;;;;;;5045111;28;20596;-91
2021/06/21 02:56:24;;;;;;;11.52;3.75;;;18.80;90.70;;;;;;5044516;28;20188;-92
2021/06/21 02:58:54;;;;;;;10.18;3.28;;;18.80;90.50;;;;;;5061353;28;20183;-91
2021/06/21 03:01:20;;;;;;;11.55;4.00;;;18.90;90.50;;;;;;5062110;28;20172;-91
2021/06/21 03:03:53;;;;;;;8.77;3.90;;;18.90;89.70;;;;;;5044170;28;20226;-91
2021/06/21 03:06:21;;;;;;;9.73;3.72;;;18.90;90.30;;;;;;5027710;28;20179;-92
2021/06/21 03:08:49;;;;;;;8.68;3.83;;;18.90;89.80;;;;;;5044135;28;20186;-91
2021/06/21 03:11:16;;;;;;;9.00;4.03;;;19.00;89.00;;;;;;5044371;28;20246;-91
2021/06/21 03:13:45;;;;;;;8.50;3.53;;;19.00;88.40;;;;;;5061675;28;20210;-92
2021/06/21 03:16:12;;;;;;;9.32;3.78;;;19.00;88.80;;;;;;5027367;28;20192;-92
2021/06/21 03:18:39;;;;;;;10.13;4.47;;;18.90;89.20;;;;;;5028189;28;20718;-92
2021/06/21 03:21:05;;;;;;;8.65;3.60;;;18.80;89.30;;;;;;5062057;28;20680;-92
2021/06/21 03:23:32;;;;;;;9.68;4.05;;;18.80;90.00;;;;;;5027774;28;20689;-91
2021/06/21 03:26:04;;;;;;;8.82;3.38;;;18.90;89.40;;;;;;5061691;28;20233;-90
2021/06/21 03:28:30;;;;;;;8.27;3.75;;;18.80;89.50;;;;;;5027433;28;20259;-91
2021/06/21 03:30:59;;;;;;;7.97;3.50;;;18.80;89.30;;;;;;5061517;28;20186;-91
2021/06/21 03:33:25;;;;;;;7.97;3.63;;;18.80;89.90;;;;;;5063360;28;20215;-91
2021/06/21 03:35:51;;;;;;;5.13;3.58;;;18.70;90.60;;;;;;5068358;28;20182;-91
2021/06/21 03:38:28;;;;;;;7.85;3.70;;;18.70;90.20;;;;;;5068151;28;20219;-91
2021/06/21 03:41:03;;;;;;;9.05;3.42;;;18.60;90.70;;;;;;5043901;28;20183;-91
2021/06/21 03:43:30;;;;;;;10.48;3.70;;;18.70;90.50;;;;;;5061614;28;20208;-91
2021/06/21 03:45:59;;;;;;;8.60;3.97;;;18.60;90.30;;;;;;5043781;28;20172;-91
2021/06/21 03:48:25;;;;;;;11.52;3.72;;;18.70;90.60;;;;;;5043710;28;20191;-90
2021/06/21 03:50:51;;;;;;;8.48;3.55;;;18.60;90.30;;;;;;5043404;28;20194;-90
2021/06/21 03:53:20;;;;;;;8.77;3.72;;;18.70;90.30;;;;;;5061629;28;20218;-91
2021/06/21 03:55:45;;;;;;;8.35;3.45;;;18.70;90.50;;;;;;5024094;28;20184;-91
2021/06/21 03:58:11;;;;;;;13.30;3.55;;;18.80;89.80;;;;;;5007678;28;20224;-91
2021/06/21 04:00:37;;;;;;;11.48;3.67;;;18.70;89.70;;;;;;5058899;28;20189;-91
2021/06/21 04:03:06;;;;;;;8.25;3.65;;;18.80;89.30;;;;;;5061269;28;20226;-89
2021/06/21 04:05:32;;;;;;;9.02;3.60;;;18.90;89.10;;;;;;5044048;28;20180;-91
2021/06/21 04:07:58;;;;;;;11.85;3.13;;;18.80;89.70;;;;;;5061467;28;20704;-91
2021/06/21 04:10:26;;;;;;;11.35;3.15;;;18.80;89.80;;;;;;5068204;28;20193;-89
2021/06/21 04:12:53;;;;;;;10.27;3.75;;;18.70;90.20;;;;;;5075394;28;20176;-91
2021/06/21 04:15:21;;;;;;;9.48;3.63;;;18.70;90.60;;;;;;5043564;28;21975;-91
2021/06/21 04:17:47;;;;;;;6.55;3.30;;;18.70;90.70;;;;;;5069865;28;20220;-90
2021/06/21 04:20:16;;;;;;;7.28;3.92;;;18.60;90.90;;;;;;5075101;28;20202;-90
2021/06/21 04:22:42;;;;;;;9.57;3.53;;;18.50;91.80;;;;;;5076279;28;20154;-89
2021/06/21 04:25:10;;;;;;;6.13;3.20;;;18.50;91.80;;;;;;5065443;28;20191;-90
2021/06/21 04:27:37;;;;;;;12.03;3.60;;;18.50;92.80;;;;;;5064494;28;20234;-90
2021/06/21 04:30:07;;;;;;;8.83;3.33;;;18.60;91.30;;;;;;5061506;28;20187;-90
2021/06/21 04:32:33;;;;;;;9.60;3.60;;;18.50;91.50;;;;;;5020391;28;20201;-90
2021/06/21 04:34:59;;;;;;;11.33;3.97;;;18.60;91.70;;;;;;5056577;28;20217;-90
2021/06/21 04:37:25;;;;;;;10.90;3.87;;;18.50;92.10;;;;;;5044145;28;20298;-91
2021/06/21 04:39:51;;;;;;;8.23;3.40;;;18.60;91.90;;;;;;5055425;28;20191;-91
2021/06/21 04:42:17;;;;;;;9.10;3.38;;;18.60;92.20;;;;;;5043612;28;20271;-91
2021/06/21 04:44:42;;;;;;;6.65;3.38;;;18.60;92.20;;;;;;5043034;28;20208;-89
2021/06/21 04:47:08;;;;;;;11.35;3.60;;;18.50;92.30;;;;;;5044659;28;20231;-90
2021/06/21 04:49:34;;;;;;;8.52;3.42;;;18.60;92.00;;;;;;5035674;28;20198;-91
2021/06/21 04:52:00;;;;;;;14.25;3.63;;;18.60;91.80;;;;;;5058220;28;20206;-90
2021/06/21 04:54:26;;;;;;;9.63;3.80;;;18.60;92.30;;;;;;5049827;28;20212;-90
2021/06/21 04:56:51;;;;;;;6.28;2.95;;;18.70;92.60;;;;;;5058071;28;20750;-90
2021/06/21 04:59:17;;;;;;;8.75;3.65;;;18.80;91.20;;;;;;5058036;28;20618;-90
2021/06/21 05:01:43;;;;;;;8.88;3.40;;;18.90;91.20;;;;;;5057073;28;20196;-89
2021/06/21 05:04:08;;;;;;;8.55;3.50;;;18.80;91.10;;;;;;5039975;28;20215;-89
2021/06/21 05:06:35;;;;;;;7.35;3.42;;;18.90;91.10;;;;;;5058208;28;20176;-89
2021/06/21 05:09:02;;;;;;;11.35;3.45;;;18.90;91.00;;;;;;5044530;28;20278;-89
2021/06/21 05:11:28;;;;;;;8.98;3.35;;;19.00;90.40;;;;;;5056046;28;20181;-89
2021/06/21 05:13:54;;;;;;;10.35;2.92;;;19.10;90.00;;;;;;5044913;28;20617;-89
2021/06/21 05:16:19;;;;;;;6.68;3.15;;;19.20;90.30;;;;;;5063117;28;20619;-90
2021/06/21 05:18:45;;;;;;;6.72;3.40;;;19.20;90.00;;;;;;5062079;28;20217;-89
2021/06/21 05:21:11;;;;;;;7.82;3.33;;;19.20;89.80;;;;;;5061350;28;20211;-90
2021/06/21 05:23:36;;;;;;;10.15;3.50;;;19.10;90.20;;;;;;5056226;28;20216;-89
2021/06/21 05:26:03;;;;;;;9.02;3.88;;;19.20;90.10;;;;;;5046178;28;20188;-89
2021/06/21 05:28:28;;;;;;;8.32;3.50;;;19.10;90.40;;;;;;5060991;28;20214;-89
2021/06/21 05:30:54;;;;;;;7.50;3.45;;;19.20;90.80;;;;;;5061526;28;20184;-89
2021/06/21 05:33:20;;;;;;;10.05;3.55;;;19.20;90.40;;;;;;5044247;28;20271;-89
2021/06/21 05:35:45;;;;;;;8.18;3.67;;;19.40;89.60;;;;;;5042502;28;20229;-89
2021/06/21 05:38:11;;;;;;;7.85;3.05;;;19.40;88.70;;;;;;5054307;28;20528;-90
2021/06/21 05:40:37;;;;;;;9.40;3.00;;;19.40;89.10;;;;;;5063221;28;20191;-89
2021/06/21 05:43:03;;;;;;;6.18;3.25;;;19.50;88.60;;;;;;5071696;28;20244;-90
2021/06/21 05:45:28;;;;;;;9.73;3.42;;;19.70;87.00;;;;;;5038888;28;20197;-90
2021/06/21 05:47:54;;;;;;;8.07;3.53;;;19.60;87.10;;;;;;5058561;28;20302;-90
2021/06/21 05:50:20;;;;;;;8.90;3.38;;;19.50;87.50;;;;;;5052241;28;20228;-89
2021/06/21 05:52:51;;;;;;;10.00;3.40;;;19.60;87.80;;;;;;5052362;28;20202;-89
2021/06/21 05:55:23;;;;;;;11.02;3.58;;;19.80;87.80;;;;;;5060534;28;20282;-90
2021/06/21 05:57:49;;;;;;;8.85;3.33;;;19.90;87.30;;;;;;5052068;28;20247;-89
2021/06/21 06:00:15;;;;;;;9.07;3.60;;;19.90;85.40;;;;;;5056175;28;20198;-89
2021/06/21 06:02:41;;;;;;;9.27;3.25;;;20.00;84.40;;;;;;5053390;28;20180;-90
2021/06/21 06:05:07;;;;;;;7.90;3.30;;;20.00;85.80;;;;;;5037286;28;20682;-90
2021/06/21 06:07:33;;;;;;;8.30;3.30;;;20.20;86.20;;;;;;5049505;28;20198;-89
2021/06/21 06:09:59;;;;;;;8.13;3.35;;;20.30;84.80;;;;;;5035571;28;20239;-89
2021/06/21 06:12:25;;;;;;;8.35;4.13;;;20.40;85.30;;;;;;5032222;28;20189;-90
2021/06/21 06:14:51;;;;;;;8.68;3.35;;;20.50;83.10;;;;;;5057316;28;20231;-89
2021/06/21 06:17:17;;;;;;;7.57;3.17;;;20.50;83.70;;;;;;5052182;28;20687;-90
2021/06/21 06:19:43;;;;;;;7.50;3.20;;;20.40;83.70;;;;;;5054627;28;20199;-89
2021/06/21 06:22:11;;;;;;;9.80;3.88;;;20.40;83.60;;;;;;5004966;28;20282;-89
2021/06/21 06:24:37;;;;;;;7.80;3.33;;;20.30;82.70;;;;;;5059426;28;20560;-89
2021/06/21 06:27:03;;;;;;;6.03;3.28;;;20.40;84.50;;;;;;5024219;28;20207;-89
2021/06/21 06:29:30;;;;;;;8.82;3.45;;;20.40;83.20;;;;;;5053368;28;20284;-89
2021/06/21 06:31:56;;;;;;;7.07;3.10;;;20.30;84.60;;;;;;5040695;28;20187;-89
2021/06/21 06:34:23;;;;;;;6.88;3.63;;;20.30;82.80;;;;;;5061472;28;20213;-89
2021/06/21 06:36:49;;;;;;;7.40;3.53;;;20.30;84.20;;;;;;5058575;28;20666;-89
2021/06/21 06:39:15;;;;;;;8.75;3.10;;;20.30;83.40;;;;;;5062743;28;20203;-89
2021/06/21 06:41:40;;;;;;;6.45;3.30;;;20.50;84.30;;;;;;5054680;28;20274;-89
2021/06/21 06:44:06;;;;;;;10.85;3.22;;;20.50;83.70;;;;;;5048503;28;20672;-89
2021/06/21 06:46:32;;;;;;;8.88;3.10;;;20.50;83.60;;;;;;5060126;28;20191;-89
2021/06/21 06:48:58;;;;;;;7.03;3.08;;;20.40;83.50;;;;;;5077839;28;20176;-89
2021/06/21 06:51:25;;;;;;;7.20;3.17;;;20.40;82.50;;;;;;5065191;28;20180;-89
2021/06/21 06:54:03;;;;;;;8.43;3.17;;;20.50;83.10;;;;;;5053804;28;20282;-89
2021/06/21 06:59:15;;;;;;;11.25;3.78;;;20.60;82.40;;;;;;5063097;28;20179;-89
2021/06/21 07:01:41;;;;;;;7.55;3.22;;;20.60;81.60;;;;;;5069163;28;20191;-88
2021/06/21 07:04:07;;;;;;;6.90;3.20;;;20.70;81.80;;;;;;5072515;28;20262;-88
2021/06/21 07:06:32;;;;;;;6.25;3.30;;;20.70;81.50;;;;;;5063797;28;20273;-89
2021/06/21 07:08:58;;;;;;;6.05;2.95;;;20.80;82.00;;;;;;5068496;28;20201;-89
2021/06/21 07:11:25;;;;;;;5.28;3.08;;;21.00;81.60;;;;;;5064890;28;20188;-89
2021/06/21 07:13:50;;;;;;;7.63;3.22;;;21.20;80.00;;;;;;5058621;28;20206;-89
2021/06/21 07:16:16;;;;;;;8.15;3.05;;;21.30;79.30;;;;;;5061119;28;20177;-89
2021/06/21 07:18:42;;;;;;;5.13;3.28;;;21.40;79.60;;;;;;5075666;28;20238;-89
2021/06/21 07:21:07;;;;;;;8.93;3.83;;;21.50;79.50;;;;;;5058590;28;20555;-89
2021/06/21 07:23:33;;;;;;;8.77;3.47;;;21.60;80.10;;;;;;5043640;28;20471;-89
2021/06/21 07:25:59;;;;;;;6.60;3.08;;;21.80;78.50;;;;;;5021392;28;20193;-89
2021/06/21 07:28:25;;;;;;;4.90;2.90;;;21.80;76.20;;;;;;5051679;28;20257;-89
2021/06/21 07:30:50;;;;;;;5.95;3.25;;;21.90;77.50;;;;;;5067365;28;20207;-88
2021/06/21 07:33:16;;;;;;;5.32;3.03;;;21.90;76.10;;;;;;5051077;28;20267;-89
2021/06/21 07:35:42;;;;;;;7.28;2.85;;;21.90;75.80;;;;;;5054887;28;20722;-88
2021/06/21 07:38:09;;;;;;;7.38;3.22;;;21.80;76.30;;;;;;5060195;28;20212;-88
2021/06/21 07:40:39;;;;;;;11.15;3.70;;;21.80;75.80;;;;;;5061093;28;20188;-89
2021/06/21 07:43:04;;;;;;;6.35;2.65;;;21.80;77.60;;;;;;5051419;28;20206;-89
2021/06/21 07:45:31;;;;;;;5.03;2.90;;;21.80;77.30;;;;;;5054714;28;20191;-89
2021/06/21 07:47:58;;;;;;;5.78;3.22;;;21.90;76.60;;;;;;5042558;28;20606;-88
2021/06/21 07:50:27;;;;;;;7.55;3.45;;;22.00;76.10;;;;;;5044587;28;20196;-89
2021/06/21 07:52:53;;;;;;;8.43;2.80;;;22.10;74.90;;;;;;5063197;28;20227;-88
2021/06/21 07:55:19;;;;;;;5.40;2.88;;;22.20;73.80;;;;;;5044158;28;20187;-88
2021/06/21 07:57:45;;;;;;;3.53;2.83;;;22.00;73.10;;;;;;5042280;28;20273;-88
2021/06/21 08:00:11;;;;;;;6.82;2.85;;;22.10;73.70;;;;;;5040777;28;20254;-88
2021/06/21 08:02:37;;;;;;;7.22;3.45;;;22.10;74.10;;;;;;5035652;28;20180;-88
2021/06/21 08:05:03;;;;;;;7.63;2.97;;;22.20;75.10;;;;;;5008124;28;20192;-88
2021/06/21 08:07:29;;;;;;;5.78;3.05;;;22.20;73.20;;;;;;5040893;28;20199;-89
2021/06/21 08:09:54;;;;;;;6.72;2.85;;;22.30;73.20;;;;;;5023629;28;20245;-89
2021/06/21 08:12:20;;;;;;;11.40;3.60;;;22.40;73.50;;;;;;5042048;28;20182;-88
2021/06/21 08:14:46;;;;;;;7.28;3.47;;;22.50;71.90;;;;;;5035562;28;20359;-88
2021/06/21 08:17:12;;;;;;;6.43;3.13;;;22.80;73.20;;;;;;5038840;28;20219;-88
2021/06/21 08:19:38;;;;;;;5.50;2.92;;;22.90;70.30;;;;;;5058419;28;20249;-87
2021/06/21 08:22:04;;;;;;;8.10;3.65;;;22.80;70.70;;;;;;5050272;28;20192;-87
2021/06/21 08:24:30;;;;;;;8.65;2.90;;;22.90;70.60;;;;;;5023084;28;20212;-88
2021/06/21 08:27:02;;;;;;;8.15;2.95;;;23.00;70.90;;;;;;5048730;28;20226;-87
2021/06/21 08:29:27;;;;;;;6.75;3.20;;;23.20;68.80;;;;;;5053097;28;20192;-87
2021/06/21 08:31:53;;;;;;;6.80;3.10;;;23.20;67.90;;;;;;5037218;28;20191;-88
2021/06/21 08:34:19;;;;;;;4.93;3.45;;;23.20;69.80;;;;;;5038420;28;20207;-87
2021/06/21 08:36:50;;;;;;;8.10;3.10;;;23.20;70.50;;;;;;5051023;28;20203;-88
2021/06/21 08:39:16;;;;;;;5.03;2.88;;;23.40;69.70;;;;;;5043185;28;20181;-87
2021/06/21 08:41:42;;;;;;;6.82;3.22;;;23.60;67.30;;;;;;5054839;28;20188;-88
2021/06/21 08:44:08;;;;;;;5.53;3.08;;;23.60;66.60;;;;;;5053112;28;20218;-88
2021/06/21 08:46:34;;;;;;;5.93;3.35;;;23.60;67.30;;;;;;5055095;28;20188;-88
2021/06/21 08:49:03;;;;;;;6.30;3.40;;;23.90;69.70;;;;;;5057826;28;20188;-87
2021/06/21 08:51:29;;;;;;;6.25;2.95;;;24.10;65.60;;;;;;5064316;28;20386;-88
2021/06/21 08:53:55;;;;;;;7.88;3.40;;;24.00;65.40;;;;;;5062467;28;20208;-88
2021/06/21 08:56:20;;;;;;;5.63;3.65;;;24.20;66.40;;;;;;5047563;28;20732;-88
2021/06/21 08:58:46;;;;;;;7.35;3.33;;;24.20;64.30;;;;;;5045831;28;20204;-88
2021/06/21 09:01:12;;;;;;;4.35;2.67;;;24.40;63.90;;;;;;5069093;28;20195;-88
2021/06/21 09:03:38;;;;;;;6.85;3.30;;;24.40;62.50;;;;;;5033919;28;20219;-88
2021/06/21 09:06:16;;;;;;;5.45;3.50;;;24.50;65.20;;;;;;5070255;28;20215;-88
2021/06/21 09:08:58;;;;;;;9.38;2.90;;;24.60;61.30;;;;;;5049055;28;20189;-88
2021/06/21 09:11:49;;;;;;;6.90;3.03;;;24.40;63.70;;;;;;5045978;28;20601;-88
2021/06/21 09:14:30;;;;;;;4.80;3.08;;;24.80;61.80;;;;;;5045634;28;20209;-88
2021/06/21 09:17:00;;;;;;;3.30;3.00;;;25.10;59.30;;;;;;5035517;28;20196;-88
2021/06/21 09:19:27;;;;;;;4.72;3.10;;;25.10;60.50;;;;;;5052817;28;20192;-89
2021/06/21 09:21:53;;;;;;;4.97;2.90;;;25.10;60.50;;;;;;5072983;28;20180;-89
2021/06/21 09:24:28;;;;;;;4.35;3.13;;;25.00;61.50;;;;;;5062067;28;20212;-89
2021/06/21 09:26:57;;;;;;;4.38;3.20;;;25.00;59.50;;;;;;5061296;28;20205;-89
2021/06/21 09:29:41;;;;;;;4.55;3.15;;;24.80;59.70;;;;;;5030405;28;20195;-90
2021/06/21 09:32:07;;;;;;;8.18;3.10;;;24.60;59.60;;;;;;5064199;28;20188;-89
2021/06/21 09:34:33;;;;;;;7.68;3.40;;;24.70;60.70;;;;;;5062156;28;20215;-89
2021/06/21 09:37:09;;;;;;;5.50;3.10;;;25.00;60.00;;;;;;5057153;28;20212;-89
2021/06/21 09:39:39;;;;;;;5.18;2.92;;;25.20;59.80;;;;;;5066337;28;20255;-89
2021/06/21 09:42:05;;;;;;;5.80;3.40;;;24.80;59.50;;;;;;5058714;28;20650;-89
2021/06/21 09:44:43;;;;;;;3.42;2.67;;;25.00;57.90;;;;;;5049514;28;20272;-89
2021/06/21 09:47:27;;;;;;;4.65;3.38;;;25.30;59.60;;;;;;5059415;28;20187;-89
2021/06/21 09:50:22;;;;;;;5.10;3.50;;;25.40;58.40;;;;;;5037049;28;20212;-89
2021/06/21 09:52:53;;;;;;;4.75;3.70;;;25.30;57.40;;;;;;5055776;28;20200;-88
2021/06/21 09:55:27;;;;;;;7.03;3.28;;;25.20;57.80;;;;;;5051447;28;20255;-88
2021/06/21 09:58:12;;;;;;;6.25;3.35;;;25.40;59.40;;;;;;5067331;28;20211;-88
2021/06/21 10:01:09;;;;;;;3.97;3.05;;;25.60;58.30;;;;;;5068506;28;20187;-88
2021/06/21 10:03:44;;;;;;;3.88;3.22;;;25.80;57.60;;;;;;5056043;28;20286;-88
2021/06/21 10:06:13;;;;;;;4.80;3.20;;;26.10;56.00;;;;;;5045649;28;20175;-88
2021/06/21 10:08:45;;;;;;;4.55;3.80;;;26.30;55.20;;;;;;5056643;28;20176;-88
2021/06/21 10:11:30;;;;;;;5.15;3.40;;;26.30;56.40;;;;;;5041032;28;20263;-88
2021/06/21 10:14:07;;;;;;;3.92;3.22;;;26.20;55.50;;;;;;5077692;28;20285;-88
2021/06/21 10:16:34;;;;;;;3.50;3.20;;;26.40;56.10;;;;;;5045969;28;20191;-88
2021/06/21 10:19:01;;;;;;;4.88;3.13;;;26.50;56.30;;;;;;5049783;28;20209;-88
2021/06/21 10:21:27;;;;;;;5.45;3.03;;;26.60;55.30;;;;;;5065744;28;20200;-88
2021/06/21 10:23:54;;;;;;;6.00;3.28;;;26.70;54.70;;;;;;5049686;28;20209;-89
2021/06/21 10:26:21;;;;;;;4.35;2.90;;;26.20;56.10;;;;;;5067782;28;20192;-88
2021/06/21 10:28:49;;;;;;;3.67;2.95;;;26.10;55.10;;;;;;5017188;28;20188;-89
2021/06/21 10:31:17;;;;;;;4.72;3.53;;;26.60;55.10;;;;;;5070270;28;20195;-87
2021/06/21 10:33:43;;;;;;;4.88;3.05;;;26.80;52.40;;;;;;5060140;28;20204;-88
2021/06/21 10:36:09;;;;;;;8.65;3.42;;;26.80;53.30;;;;;;5035973;28;20184;-88
2021/06/21 10:38:35;;;;;;;5.15;3.72;;;26.90;55.50;;;;;;5076273;28;20210;-88
2021/06/21 10:41:08;;;;;;;3.78;3.20;;;27.20;52.60;;;;;;5081474;28;20204;-88
2021/06/21 10:43:49;;;;;;;4.38;3.50;;;27.00;52.50;;;;;;5047515;28;20204;-88
2021/06/21 10:46:18;;;;;;;3.70;3.10;;;27.10;53.10;;;;;;5082785;28;20167;-89
2021/06/21 10:49:02;;;;;;;4.32;3.17;;;27.30;51.70;;;;;;5069562;28;20193;-88
2021/06/21 10:51:35;;;;;;;3.67;3.35;;;27.20;51.60;;;;;;5067409;28;20266;-88
2021/06/21 10:54:02;;;;;;;3.28;2.97;;;27.60;51.10;;;;;;5080182;28;20701;-89
2021/06/21 10:56:49;;;;;;;3.42;3.10;;;27.90;49.80;;;;;;5062437;28;20206;-89
2021/06/21 10:59:17;;;;;;;4.75;3.00;;;28.10;49.30;;;;;;5033549;28;20191;-89
2021/06/21 11:01:55;;;;;;;3.80;3.00;;;28.10;50.90;;;;;;5059147;28;20190;-89
2021/06/21 11:04:34;;;;;;;6.25;3.40;;;28.30;49.30;;;;;;5028735;28;20251;-88
2021/06/21 11:07:20;;;;;;;3.80;3.22;;;28.00;50.50;;;;;;5051264;28;20223;-88
2021/06/21 11:09:52;;;;;;;3.33;2.95;;;28.00;50.20;;;;;;5044270;28;20735;-88
2021/06/21 11:12:21;;;;;;;4.78;3.40;;;27.60;50.80;;;;;;5053004;28;20184;-89
2021/06/21 11:15:17;;;;;;;6.10;4.05;;;27.90;50.00;;;;;;5048071;28;20210;-88
2021/06/21 11:17:43;;;;;;;5.70;3.50;;;28.60;47.80;;;;;;5042523;28;20279;-88
2021/06/21 11:20:28;;;;;;;6.00;3.30;;;28.90;46.80;;;;;;5076313;28;20175;-89
2021/06/21 11:22:59;;;;;;;3.72;3.17;;;29.20;46.00;;;;;;5051420;28;20207;-88
2021/06/21 11:25:39;;;;;;;3.58;3.28;;;29.20;46.80;;;;;;5044768;28;20278;-88
2021/06/21 11:28:05;;;;;;;4.32;3.85;;;29.40;46.00;;;;;;5048022;28;20184;-88
2021/06/21 11:30:41;;;;;;;4.28;3.38;;;29.20;48.00;;;;;;5061362;28;20690;-88
2021/06/21 11:33:10;;;;;;;8.00;3.60;;;29.60;47.40;;;;;;5080267;28;20210;-88
2021/06/21 11:36:09;;;;;;;6.35;3.25;;;29.90;46.20;;;;;;5062709;28;20286;-88
2021/06/21 11:38:36;;;;;;;5.15;3.33;;;30.50;45.20;;;;;;5000858;28;20232;-89
2021/06/21 11:41:18;;;;;;;4.80;3.13;;;30.00;47.00;;;;;;5050727;28;20189;-90
2021/06/21 11:43:45;;;;;;;4.13;3.60;;;29.90;45.60;;;;;;5023455;28;20201;-89
2021/06/21 11:46:31;;;;;;;3.50;3.10;;;30.40;44.80;;;;;;5029997;28;20186;-89
2021/06/21 11:49:04;;;;;;;5.18;3.40;;;30.20;45.70;;;;;;5059798;28;20262;-89
2021/06/21 11:51:30;;;;;;;5.00;3.80;;;30.20;45.50;;;;;;5062850;28;20164;-88
2021/06/21 11:53:59;;;;;;;5.13;3.63;;;30.00;46.30;;;;;;5061567;28;20689;-88
2021/06/21 11:56:26;;;;;;;3.50;3.20;;;29.70;47.50;;;;;;5035814;28;20200;-88
2021/06/21 11:58:54;;;;;;;3.70;3.40;;;29.40;47.60;;;;;;5062824;28;20218;-88
2021/06/21 12:01:24;;;;;;;4.90;3.35;;;29.30;47.00;;;;;;5066629;28;20202;-89
2021/06/21 12:04:01;;;;;;;6.15;3.67;;;29.20;47.90;;;;;;5044886;28;20252;-88
2021/06/21 12:06:28;;;;;;;3.65;3.35;;;29.10;47.90;;;;;;5050002;28;20186;-88
2021/06/21 12:08:54;;;;;;;7.07;3.58;;;29.70;45.90;;;;;;5056351;28;20279;-89
2021/06/21 12:11:30;;;;;;;4.93;3.35;;;30.20;45.90;;;;;;5058145;28;20632;-88
2021/06/21 12:14:01;;;;;;;4.07;3.58;;;30.30;47.40;;;;;;5074016;28;20203;-88
2021/06/21 12:16:29;;;;;;;4.55;3.42;;;30.60;46.30;;;;;;5056893;28;20255;-89
2021/06/21 12:18:57;;;;;;;3.70;3.38;;;30.90;45.10;;;;;;5066766;28;20223;-89
2021/06/21 12:21:32;;;;;;;3.40;3.10;;;30.90;43.70;;;;;;5038093;28;20645;-88
2021/06/21 12:24:20;;;;;;;7.90;4.00;;;31.10;42.30;;;;;;5071707;28;20195;-90
2021/06/21 12:26:48;;;;;;;4.55;3.42;;;31.50;42.30;;;;;;5044017;28;20193;-91
2021/06/21 12:29:22;;;;;;;4.20;3.60;;;30.80;43.80;;;;;;5043592;28;20184;-89
2021/06/21 12:32:04;;;;;;;4.63;3.65;;;29.90;45.90;;;;;;5043254;28;20161;-89
2021/06/21 12:34:53;;;;;;;7.63;3.40;;;29.90;47.40;;;;;;5043646;28;20208;-90
2021/06/21 12:37:32;;;;;;;6.03;3.60;;;30.50;44.40;;;;;;5031809;28;20209;-89
2021/06/21 12:39:59;;;;;;;3.70;3.35;;;30.30;45.40;;;;;;5084562;28;20171;-90
2021/06/21 12:42:29;;;;;;;6.32;3.53;;;30.90;44.00;;;;;;5083608;28;20183;-91
2021/06/21 12:44:54;;;;;;;4.55;3.90;;;31.30;43.50;;;;;;5064538;28;20203;-90
2021/06/21 12:47:28;;;;;;;4.82;3.45;;;31.70;41.50;;;;;;5043313;28;20188;-90
2021/06/21 12:50:01;;;;;;;3.83;3.20;;;31.60;41.80;;;;;;5056835;28;20195;-90
2021/06/21 12:52:26;;;;;;;5.78;3.65;;;31.90;40.70;;;;;;5045887;28;20184;-90
2021/06/21 12:55:07;;;;;;;3.47;3.28;;;32.20;39.90;;;;;;5048471;28;20218;-90
2021/06/21 12:57:58;;;;;;;3.70;3.35;;;32.50;39.10;;;;;;5056800;28;20262;-90
2021/06/21 13:00:44;;;;;;;4.10;3.70;;;32.50;39.20;;;;;;5050828;28;20184;-90